sensor_id;sensor_type;location;lat;lon;timestamp;P1;durP1;ratioP1;P2;durP2;ratioP2
68870;SDS011;55906;52.278;6.808;2022-09-27T00:01:10;8.60;;;3.45;;
68870;SDS011;55906;52.278;6.808;2022-09-27T00:03:39;6.50;;;3.20;;
68870;SDS011;55906;52.278;6.808;2022-09-27T00:06:07;5.33;;;2.97;;
68870;SDS011;55906;52.278;6.808;2022-09-27T00:08:37;6.93;;;2.70;;
68870;SDS011;55906;52.278;6.808;2022-09-27T00:11:05;9.77;;;3.10;;
68870;SDS011;55906;52.278;6.808;2022-09-27T00:13:33;7.45;;;3.20;;
68870;SDS011;55906;52.278;6.808;2022-09-27T00:16:00;5.43;;;2.58;;
68870;SDS011;55906;52.278;6.808;2022-09-27T00:18:29;7.33;;;2.83;;
68870;SDS011;55906;52.278;6.808;2022-09-27T00:21:04;5.72;;;2.92;;
68870;SDS011;55906;52.278;6.808;2022-09-27T00:23:32;6.57;;;3.13;;
68870;SDS011;55906;52.278;6.808;2022-09-27T00:25:58;10.43;;;3.20;;
68870;SDS011;55906;52.278;6.808;2022-09-27T00:28:25;5.82;;;2.90;;
68870;SDS011;55906;52.278;6.808;2022-09-27T00:30:53;6.63;;;2.60;;
68870;SDS011;55906;52.278;6.808;2022-09-27T00:33:20;5.75;;;2.75;;
68870;SDS011;55906;52.278;6.808;2022-09-27T00:35:46;5.72;;;2.60;;
68870;SDS011;55906;52.278;6.808;2022-09-27T00:38:14;4.65;;;2.60;;
68870;SDS011;55906;52.278;6.808;2022-09-27T00:40:41;5.68;;;2.88;;
68870;SDS011;55906;52.278;6.808;2022-09-27T00:43:15;4.93;;;2.50;;
68870;SDS011;55906;52.278;6.808;2022-09-27T00:45:44;5.95;;;2.42;;
68870;SDS011;55906;52.278;6.808;2022-09-27T00:48:15;5.45;;;2.63;;
68870;SDS011;55906;52.278;6.808;2022-09-27T00:50:46;4.78;;;2.90;;
68870;SDS011;55906;52.278;6.808;2022-09-27T00:53:18;5.78;;;2.40;;
68870;SDS011;55906;52.278;6.808;2022-09-27T00:55:49;5.03;;;2.80;;
68870;SDS011;55906;52.278;6.808;2022-09-27T00:58:20;5.57;;;2.72;;
68870;SDS011;55906;52.278;6.808;2022-09-27T01:00:51;5.07;;;2.70;;
68870;SDS011;55906;52.278;6.808;2022-09-27T01:03:22;6.75;;;2.72;;
68870;SDS011;55906;52.278;6.808;2022-09-27T01:05:55;5.97;;;2.45;;
68870;SDS011;55906;52.278;6.808;2022-09-27T01:08:24;3.87;;;2.70;;
68870;SDS011;55906;52.278;6.808;2022-09-27T01:10:53;5.63;;;2.92;;
68870;SDS011;55906;52.278;6.808;2022-09-27T01:13:35;5.93;;;2.50;;
68870;SDS011;55906;52.278;6.808;2022-09-27T01:16:09;5.40;;;2.88;;
68870;SDS011;55906;52.278;6.808;2022-09-27T01:18:44;6.47;;;2.58;;
68870;SDS011;55906;52.278;6.808;2022-09-27T01:21:23;7.13;;;2.87;;
68870;SDS011;55906;52.278;6.808;2022-09-27T01:24:27;3.80;;;2.30;;
68870;SDS011;55906;52.278;6.808;2022-09-27T01:27:15;6.03;;;2.30;;
68870;SDS011;55906;52.278;6.808;2022-09-27T01:32:54;4.40;;;2.33;;
68870;SDS011;55906;52.278;6.808;2022-09-27T01:35:39;4.47;;;2.40;;
68870;SDS011;55906;52.278;6.808;2022-09-27T01:38:20;4.63;;;2.15;;
68870;SDS011;55906;52.278;6.808;2022-09-27T01:40:52;4.10;;;2.20;;
68870;SDS011;55906;52.278;6.808;2022-09-27T01:43:28;4.90;;;2.78;;
68870;SDS011;55906;52.278;6.808;2022-09-27T01:46:02;4.47;;;2.58;;
68870;SDS011;55906;52.278;6.808;2022-09-27T01:48:34;5.73;;;2.50;;
68870;SDS011;55906;52.278;6.808;2022-09-27T01:51:06;6.05;;;2.85;;
68870;SDS011;55906;52.278;6.808;2022-09-27T01:53:37;6.63;;;2.92;;
68870;SDS011;55906;52.278;6.808;2022-09-27T01:56:06;5.47;;;2.90;;
68870;SDS011;55906;52.278;6.808;2022-09-27T01:58:39;6.40;;;3.00;;
68870;SDS011;55906;52.278;6.808;2022-09-27T02:01:11;4.87;;;2.53;;
68870;SDS011;55906;52.278;6.808;2022-09-27T02:03:41;4.80;;;2.53;;
68870;SDS011;55906;52.278;6.808;2022-09-27T02:06:13;5.85;;;3.03;;
68870;SDS011;55906;52.278;6.808;2022-09-27T02:08:44;4.88;;;2.88;;
68870;SDS011;55906;52.278;6.808;2022-09-27T02:11:14;5.25;;;3.05;;
68870;SDS011;55906;52.278;6.808;2022-09-27T02:13:42;5.63;;;2.60;;
68870;SDS011;55906;52.278;6.808;2022-09-27T02:16:19;3.80;;;2.67;;
68870;SDS011;55906;52.278;6.808;2022-09-27T02:18:50;4.78;;;2.80;;
68870;SDS011;55906;52.278;6.808;2022-09-27T02:21:21;6.68;;;2.80;;
68870;SDS011;55906;52.278;6.808;2022-09-27T02:23:55;5.00;;;2.55;;
68870;SDS011;55906;52.278;6.808;2022-09-27T02:26:26;5.97;;;3.40;;
68870;SDS011;55906;52.278;6.808;2022-09-27T02:28:58;7.85;;;3.30;;
68870;SDS011;55906;52.278;6.808;2022-09-27T02:31:31;6.93;;;2.72;;
68870;SDS011;55906;52.278;6.808;2022-09-27T02:33:59;5.70;;;2.67;;
68870;SDS011;55906;52.278;6.808;2022-09-27T02:36:30;4.07;;;2.70;;
68870;SDS011;55906;52.278;6.808;2022-09-27T02:38:56;8.00;;;3.50;;
68870;SDS011;55906;52.278;6.808;2022-09-27T02:41:24;4.22;;;2.40;;
68870;SDS011;55906;52.278;6.808;2022-09-27T02:43:51;4.50;;;2.85;;
68870;SDS011;55906;52.278;6.808;2022-09-27T02:46:24;6.10;;;3.22;;
68870;SDS011;55906;52.278;6.808;2022-09-27T02:49:16;6.45;;;2.78;;
68870;SDS011;55906;52.278;6.808;2022-09-27T02:51:57;7.40;;;3.23;;
68870;SDS011;55906;52.278;6.808;2022-09-27T02:54:34;5.75;;;2.90;;
68870;SDS011;55906;52.278;6.808;2022-09-27T02:57:11;8.73;;;3.30;;
68870;SDS011;55906;52.278;6.808;2022-09-27T02:59:49;6.57;;;2.60;;
68870;SDS011;55906;52.278;6.808;2022-09-27T03:02:25;4.80;;;2.42;;
68870;SDS011;55906;52.278;6.808;2022-09-27T03:04:58;4.63;;;2.80;;
68870;SDS011;55906;52.278;6.808;2022-09-27T03:07:27;6.03;;;2.58;;
68870;SDS011;55906;52.278;6.808;2022-09-27T03:09:54;3.92;;;2.30;;
68870;SDS011;55906;52.278;6.808;2022-09-27T03:12:21;3.35;;;2.38;;
68870;SDS011;55906;52.278;6.808;2022-09-27T03:14:51;4.45;;;2.92;;
68870;SDS011;55906;52.278;6.808;2022-09-27T03:17:18;4.23;;;2.93;;
68870;SDS011;55906;52.278;6.808;2022-09-27T03:19:46;4.07;;;2.80;;
68870;SDS011;55906;52.278;6.808;2022-09-27T03:22:13;4.50;;;2.55;;
68870;SDS011;55906;52.278;6.808;2022-09-27T03:24:39;5.20;;;3.00;;
68870;SDS011;55906;52.278;6.808;2022-09-27T03:27:06;5.97;;;2.47;;
68870;SDS011;55906;52.278;6.808;2022-09-27T03:29:34;5.83;;;2.87;;
68870;SDS011;55906;52.278;6.808;2022-09-27T03:32:01;7.90;;;2.80;;
68870;SDS011;55906;52.278;6.808;2022-09-27T03:34:28;3.63;;;2.55;;
68870;SDS011;55906;52.278;6.808;2022-09-27T03:36:56;3.47;;;2.38;;
68870;SDS011;55906;52.278;6.808;2022-09-27T03:39:22;5.55;;;2.40;;
68870;SDS011;55906;52.278;6.808;2022-09-27T03:41:49;5.87;;;3.00;;
68870;SDS011;55906;52.278;6.808;2022-09-27T03:44:16;6.32;;;2.50;;
68870;SDS011;55906;52.278;6.808;2022-09-27T03:46:42;4.95;;;2.55;;
68870;SDS011;55906;52.278;6.808;2022-09-27T03:49:09;4.78;;;2.90;;
68870;SDS011;55906;52.278;6.808;2022-09-27T03:51:35;6.90;;;2.60;;
68870;SDS011;55906;52.278;6.808;2022-09-27T03:54:03;4.97;;;2.60;;
68870;SDS011;55906;52.278;6.808;2022-09-27T03:56:30;6.05;;;2.30;;
68870;SDS011;55906;52.278;6.808;2022-09-27T03:58:57;4.32;;;2.67;;
68870;SDS011;55906;52.278;6.808;2022-09-27T04:01:24;5.90;;;2.60;;
68870;SDS011;55906;52.278;6.808;2022-09-27T04:03:51;7.63;;;2.55;;
68870;SDS011;55906;52.278;6.808;2022-09-27T04:06:17;3.70;;;2.90;;
68870;SDS011;55906;52.278;6.808;2022-09-27T04:08:44;6.10;;;2.60;;
68870;SDS011;55906;52.278;6.808;2022-09-27T04:11:12;4.45;;;2.50;;
68870;SDS011;55906;52.278;6.808;2022-09-27T04:13:39;7.00;;;2.80;;
68870;SDS011;55906;52.278;6.808;2022-09-27T04:16:08;3.42;;;2.40;;
68870;SDS011;55906;52.278;6.808;2022-09-27T04:18:35;6.47;;;2.67;;
68870;SDS011;55906;52.278;6.808;2022-09-27T04:21:02;3.65;;;2.85;;
68870;SDS011;55906;52.278;6.808;2022-09-27T04:23:28;6.07;;;2.50;;
68870;SDS011;55906;52.278;6.808;2022-09-27T04:25:55;5.03;;;2.85;;
68870;SDS011;55906;52.278;6.808;2022-09-27T04:28:23;4.60;;;2.60;;
68870;SDS011;55906;52.278;6.808;2022-09-27T04:30:50;6.90;;;3.23;;
68870;SDS011;55906;52.278;6.808;2022-09-27T04:33:16;4.10;;;3.05;;
68870;SDS011;55906;52.278;6.808;2022-09-27T04:35:43;3.70;;;2.80;;
68870;SDS011;55906;52.278;6.808;2022-09-27T04:38:27;4.75;;;2.75;;
68870;SDS011;55906;52.278;6.808;2022-09-27T04:40:54;4.25;;;2.88;;
68870;SDS011;55906;52.278;6.808;2022-09-27T04:43:20;7.20;;;2.83;;
68870;SDS011;55906;52.278;6.808;2022-09-27T04:45:49;5.13;;;3.08;;
68870;SDS011;55906;52.278;6.808;2022-09-27T04:48:15;4.03;;;2.50;;
68870;SDS011;55906;52.278;6.808;2022-09-27T04:50:42;5.80;;;3.35;;
68870;SDS011;55906;52.278;6.808;2022-09-27T04:53:10;6.05;;;3.00;;
68870;SDS011;55906;52.278;6.808;2022-09-27T04:55:39;5.67;;;2.97;;
68870;SDS011;55906;52.278;6.808;2022-09-27T04:58:05;6.15;;;3.25;;
68870;SDS011;55906;52.278;6.808;2022-09-27T05:00:32;4.70;;;3.08;;
68870;SDS011;55906;52.278;6.808;2022-09-27T05:03:00;4.28;;;3.35;;
68870;SDS011;55906;52.278;6.808;2022-09-27T05:05:26;5.63;;;2.72;;
68870;SDS011;55906;52.278;6.808;2022-09-27T05:07:53;6.43;;;2.93;;
68870;SDS011;55906;52.278;6.808;2022-09-27T05:10:20;4.15;;;2.65;;
68870;SDS011;55906;52.278;6.808;2022-09-27T05:12:46;5.18;;;2.90;;
68870;SDS011;55906;52.278;6.808;2022-09-27T05:15:13;5.10;;;3.05;;
68870;SDS011;55906;52.278;6.808;2022-09-27T05:17:40;7.15;;;3.25;;
68870;SDS011;55906;52.278;6.808;2022-09-27T05:20:08;4.87;;;3.20;;
68870;SDS011;55906;52.278;6.808;2022-09-27T05:22:35;9.60;;;3.75;;
68870;SDS011;55906;52.278;6.808;2022-09-27T05:25:02;5.15;;;3.60;;
68870;SDS011;55906;52.278;6.808;2022-09-27T05:27:30;5.55;;;3.33;;
68870;SDS011;55906;52.278;6.808;2022-09-27T05:29:56;9.38;;;3.33;;
68870;SDS011;55906;52.278;6.808;2022-09-27T05:32:24;7.10;;;3.87;;
68870;SDS011;55906;52.278;6.808;2022-09-27T05:34:51;7.88;;;3.55;;
68870;SDS011;55906;52.278;6.808;2022-09-27T05:37:19;6.93;;;3.85;;
68870;SDS011;55906;52.278;6.808;2022-09-27T05:39:46;7.00;;;3.83;;
68870;SDS011;55906;52.278;6.808;2022-09-27T05:42:14;8.40;;;3.58;;
68870;SDS011;55906;52.278;6.808;2022-09-27T05:44:40;7.80;;;3.93;;
68870;SDS011;55906;52.278;6.808;2022-09-27T05:47:11;7.18;;;3.45;;
68870;SDS011;55906;52.278;6.808;2022-09-27T05:49:37;8.43;;;3.50;;
68870;SDS011;55906;52.278;6.808;2022-09-27T05:52:04;8.57;;;3.33;;
68870;SDS011;55906;52.278;6.808;2022-09-27T05:54:32;7.22;;;3.47;;
68870;SDS011;55906;52.278;6.808;2022-09-27T05:56:59;8.77;;;3.57;;
68870;SDS011;55906;52.278;6.808;2022-09-27T05:59:26;6.47;;;2.90;;
68870;SDS011;55906;52.278;6.808;2022-09-27T06:01:53;6.90;;;3.40;;
68870;SDS011;55906;52.278;6.808;2022-09-27T06:04:20;8.10;;;3.25;;
68870;SDS011;55906;52.278;6.808;2022-09-27T06:06:47;6.15;;;3.30;;
68870;SDS011;55906;52.278;6.808;2022-09-27T06:09:14;8.10;;;3.53;;
68870;SDS011;55906;52.278;6.808;2022-09-27T06:11:43;7.18;;;3.33;;
68870;SDS011;55906;52.278;6.808;2022-09-27T06:14:10;6.05;;;3.40;;
68870;SDS011;55906;52.278;6.808;2022-09-27T06:16:37;6.32;;;3.10;;
68870;SDS011;55906;52.278;6.808;2022-09-27T06:19:03;6.35;;;3.20;;
68870;SDS011;55906;52.278;6.808;2022-09-27T06:21:30;7.03;;;3.47;;
68870;SDS011;55906;52.278;6.808;2022-09-27T06:23:56;8.77;;;3.05;;
68870;SDS011;55906;52.278;6.808;2022-09-27T06:26:24;7.60;;;3.08;;
68870;SDS011;55906;52.278;6.808;2022-09-27T06:28:52;9.50;;;3.20;;
68870;SDS011;55906;52.278;6.808;2022-09-27T06:31:19;4.97;;;3.03;;
68870;SDS011;55906;52.278;6.808;2022-09-27T06:33:46;6.97;;;3.10;;
68870;SDS011;55906;52.278;6.808;2022-09-27T06:36:13;7.25;;;3.00;;
68870;SDS011;55906;52.278;6.808;2022-09-27T06:38:40;8.38;;;3.55;;
68870;SDS011;55906;52.278;6.808;2022-09-27T06:41:07;7.68;;;3.00;;
68870;SDS011;55906;52.278;6.808;2022-09-27T06:43:34;6.93;;;3.47;;
68870;SDS011;55906;52.278;6.808;2022-09-27T06:46:02;8.67;;;3.77;;
68870;SDS011;55906;52.278;6.808;2022-09-27T06:48:30;8.82;;;3.55;;
68870;SDS011;55906;52.278;6.808;2022-09-27T06:50:57;8.45;;;3.20;;
68870;SDS011;55906;52.278;6.808;2022-09-27T06:53:24;6.22;;;3.00;;
68870;SDS011;55906;52.278;6.808;2022-09-27T06:55:54;8.02;;;2.85;;
68870;SDS011;55906;52.278;6.808;2022-09-27T06:58:23;6.53;;;2.80;;
68870;SDS011;55906;52.278;6.808;2022-09-27T07:01:17;7.13;;;3.40;;
68870;SDS011;55906;52.278;6.808;2022-09-27T07:03:48;6.15;;;3.17;;
68870;SDS011;55906;52.278;6.808;2022-09-27T07:06:15;7.28;;;2.97;;
68870;SDS011;55906;52.278;6.808;2022-09-27T07:08:44;7.13;;;2.80;;
68870;SDS011;55906;52.278;6.808;2022-09-27T07:11:10;9.67;;;3.70;;
68870;SDS011;55906;52.278;6.808;2022-09-27T07:13:37;6.40;;;3.45;;
68870;SDS011;55906;52.278;6.808;2022-09-27T07:16:06;8.10;;;3.28;;
68870;SDS011;55906;52.278;6.808;2022-09-27T07:18:37;7.45;;;3.03;;
68870;SDS011;55906;52.278;6.808;2022-09-27T07:21:03;7.43;;;3.10;;
68870;SDS011;55906;52.278;6.808;2022-09-27T07:23:30;5.40;;;2.97;;
68870;SDS011;55906;52.278;6.808;2022-09-27T07:25:59;6.82;;;2.90;;
68870;SDS011;55906;52.278;6.808;2022-09-27T07:28:28;7.93;;;3.15;;
68870;SDS011;55906;52.278;6.808;2022-09-27T07:30:55;9.00;;;3.00;;
68870;SDS011;55906;52.278;6.808;2022-09-27T07:33:22;6.38;;;2.90;;
68870;SDS011;55906;52.278;6.808;2022-09-27T07:35:51;6.80;;;3.30;;
68870;SDS011;55906;52.278;6.808;2022-09-27T07:38:17;7.45;;;3.20;;
68870;SDS011;55906;52.278;6.808;2022-09-27T07:40:44;8.60;;;3.05;;
68870;SDS011;55906;52.278;6.808;2022-09-27T07:43:13;7.78;;;2.90;;
68870;SDS011;55906;52.278;6.808;2022-09-27T07:45:40;7.38;;;2.72;;
68870;SDS011;55906;52.278;6.808;2022-09-27T07:48:07;6.07;;;2.87;;
68870;SDS011;55906;52.278;6.808;2022-09-27T07:50:37;7.75;;;2.90;;
68870;SDS011;55906;52.278;6.808;2022-09-27T07:53:05;5.65;;;2.83;;
68870;SDS011;55906;52.278;6.808;2022-09-27T07:55:36;7.05;;;3.22;;
68870;SDS011;55906;52.278;6.808;2022-09-27T07:58:04;9.07;;;3.45;;
68870;SDS011;55906;52.278;6.808;2022-09-27T08:00:33;8.77;;;3.17;;
68870;SDS011;55906;52.278;6.808;2022-09-27T08:03:02;6.20;;;3.13;;
68870;SDS011;55906;52.278;6.808;2022-09-27T08:05:30;5.50;;;2.70;;
68870;SDS011;55906;52.278;6.808;2022-09-27T08:07:58;6.38;;;3.13;;
68870;SDS011;55906;52.278;6.808;2022-09-27T08:10:27;6.93;;;2.97;;
68870;SDS011;55906;52.278;6.808;2022-09-27T08:12:54;8.07;;;2.77;;
68870;SDS011;55906;52.278;6.808;2022-09-27T08:15:21;5.82;;;2.70;;
68870;SDS011;55906;52.278;6.808;2022-09-27T08:17:48;6.03;;;2.83;;
68870;SDS011;55906;52.278;6.808;2022-09-27T08:20:14;6.03;;;2.53;;
68870;SDS011;55906;52.278;6.808;2022-09-27T08:22:42;5.57;;;2.47;;
68870;SDS011;55906;52.278;6.808;2022-09-27T08:25:09;7.43;;;2.73;;
68870;SDS011;55906;52.278;6.808;2022-09-27T08:27:37;5.63;;;3.15;;
68870;SDS011;55906;52.278;6.808;2022-09-27T08:30:04;7.25;;;2.75;;
68870;SDS011;55906;52.278;6.808;2022-09-27T08:32:31;4.10;;;2.40;;
68870;SDS011;55906;52.278;6.808;2022-09-27T08:34:58;7.93;;;3.10;;
68870;SDS011;55906;52.278;6.808;2022-09-27T08:37:24;6.47;;;2.80;;
68870;SDS011;55906;52.278;6.808;2022-09-27T08:39:51;6.93;;;3.03;;
68870;SDS011;55906;52.278;6.808;2022-09-27T08:42:20;6.03;;;3.00;;
68870;SDS011;55906;52.278;6.808;2022-09-27T08:44:57;5.85;;;2.72;;
68870;SDS011;55906;52.278;6.808;2022-09-27T08:47:30;6.28;;;2.60;;
68870;SDS011;55906;52.278;6.808;2022-09-27T08:50:03;4.67;;;2.93;;
68870;SDS011;55906;52.278;6.808;2022-09-27T08:52:38;6.15;;;2.53;;
68870;SDS011;55906;52.278;6.808;2022-09-27T08:55:13;5.55;;;2.22;;
68870;SDS011;55906;52.278;6.808;2022-09-27T08:57:49;5.50;;;2.13;;
68870;SDS011;55906;52.278;6.808;2022-09-27T09:00:22;6.72;;;2.72;;
68870;SDS011;55906;52.278;6.808;2022-09-27T09:02:49;5.60;;;2.80;;
68870;SDS011;55906;52.278;6.808;2022-09-27T09:05:16;7.95;;;2.10;;
68870;SDS011;55906;52.278;6.808;2022-09-27T09:07:53;4.95;;;2.10;;
68870;SDS011;55906;52.278;6.808;2022-09-27T09:10:33;5.40;;;2.00;;
68870;SDS011;55906;52.278;6.808;2022-09-27T09:13:33;7.50;;;2.58;;
68870;SDS011;55906;52.278;6.808;2022-09-27T09:16:26;7.07;;;2.30;;
68870;SDS011;55906;52.278;6.808;2022-09-27T09:19:07;4.30;;;2.40;;
68870;SDS011;55906;52.278;6.808;2022-09-27T09:21:48;3.80;;;2.22;;
68870;SDS011;55906;52.278;6.808;2022-09-27T09:24:30;3.42;;;2.00;;
68870;SDS011;55906;52.278;6.808;2022-09-27T09:27:10;6.40;;;2.17;;
68870;SDS011;55906;52.278;6.808;2022-09-27T09:29:54;4.40;;;2.03;;
68870;SDS011;55906;52.278;6.808;2022-09-27T09:32:33;4.38;;;2.40;;
68870;SDS011;55906;52.278;6.808;2022-09-27T09:35:11;4.13;;;2.25;;
68870;SDS011;55906;52.278;6.808;2022-09-27T09:37:42;3.92;;;2.00;;
68870;SDS011;55906;52.278;6.808;2022-09-27T09:40:14;3.28;;;2.00;;
68870;SDS011;55906;52.278;6.808;2022-09-27T09:42:47;5.73;;;2.23;;
68870;SDS011;55906;52.278;6.808;2022-09-27T09:45:18;5.63;;;2.13;;
68870;SDS011;55906;52.278;6.808;2022-09-27T09:47:50;4.85;;;2.20;;
68870;SDS011;55906;52.278;6.808;2022-09-27T09:50:21;4.88;;;2.10;;
68870;SDS011;55906;52.278;6.808;2022-09-27T09:52:53;5.22;;;2.17;;
68870;SDS011;55906;52.278;6.808;2022-09-27T09:55:24;5.93;;;1.93;;
68870;SDS011;55906;52.278;6.808;2022-09-27T09:58:02;4.85;;;2.70;;
68870;SDS011;55906;52.278;6.808;2022-09-27T10:00:38;5.15;;;2.20;;
68870;SDS011;55906;52.278;6.808;2022-09-27T10:03:06;6.40;;;2.10;;
68870;SDS011;55906;52.278;6.808;2022-09-27T10:05:33;4.97;;;2.03;;
68870;SDS011;55906;52.278;6.808;2022-09-27T10:08:01;4.20;;;2.17;;
68870;SDS011;55906;52.278;6.808;2022-09-27T10:10:30;6.15;;;2.58;;
68870;SDS011;55906;52.278;6.808;2022-09-27T10:12:57;3.92;;;2.20;;
68870;SDS011;55906;52.278;6.808;2022-09-27T10:15:25;3.92;;;2.13;;
68870;SDS011;55906;52.278;6.808;2022-09-27T10:17:55;4.38;;;2.30;;
68870;SDS011;55906;52.278;6.808;2022-09-27T10:20:29;3.77;;;1.90;;
68870;SDS011;55906;52.278;6.808;2022-09-27T10:22:58;3.95;;;2.00;;
68870;SDS011;55906;52.278;6.808;2022-09-27T10:25:44;3.30;;;1.83;;
68870;SDS011;55906;52.278;6.808;2022-09-27T10:28:25;4.03;;;2.50;;
68870;SDS011;55906;52.278;6.808;2022-09-27T10:30:58;4.60;;;1.90;;
68870;SDS011;55906;52.278;6.808;2022-09-27T10:33:27;3.60;;;2.30;;
68870;SDS011;55906;52.278;6.808;2022-09-27T10:35:57;3.78;;;2.40;;
68870;SDS011;55906;52.278;6.808;2022-09-27T10:38:25;3.20;;;2.28;;
68870;SDS011;55906;52.278;6.808;2022-09-27T10:40:54;3.78;;;2.50;;
68870;SDS011;55906;52.278;6.808;2022-09-27T10:43:26;5.40;;;2.40;;
68870;SDS011;55906;52.278;6.808;2022-09-27T10:46:04;4.90;;;2.30;;
68870;SDS011;55906;52.278;6.808;2022-09-27T10:48:36;5.18;;;2.00;;
68870;SDS011;55906;52.278;6.808;2022-09-27T10:51:17;3.83;;;2.30;;
68870;SDS011;55906;52.278;6.808;2022-09-27T10:53:48;5.00;;;2.63;;
68870;SDS011;55906;52.278;6.808;2022-09-27T10:56:20;4.07;;;2.28;;
68870;SDS011;55906;52.278;6.808;2022-09-27T10:58:49;4.57;;;2.93;;
68870;SDS011;55906;52.278;6.808;2022-09-27T11:01:16;4.47;;;2.45;;
68870;SDS011;55906;52.278;6.808;2022-09-27T11:03:45;4.47;;;2.40;;
68870;SDS011;55906;52.278;6.808;2022-09-27T11:06:19;3.90;;;2.50;;
68870;SDS011;55906;52.278;6.808;2022-09-27T11:08:54;3.95;;;2.72;;
68870;SDS011;55906;52.278;6.808;2022-09-27T11:11:34;4.80;;;2.53;;
68870;SDS011;55906;52.278;6.808;2022-09-27T11:14:02;5.35;;;2.30;;
68870;SDS011;55906;52.278;6.808;2022-09-27T11:16:35;4.32;;;2.20;;
68870;SDS011;55906;52.278;6.808;2022-09-27T11:19:22;3.67;;;2.20;;
68870;SDS011;55906;52.278;6.808;2022-09-27T11:22:04;4.30;;;2.00;;
68870;SDS011;55906;52.278;6.808;2022-09-27T11:24:43;3.70;;;2.27;;
68870;SDS011;55906;52.278;6.808;2022-09-27T11:27:24;3.47;;;2.10;;
68870;SDS011;55906;52.278;6.808;2022-09-27T11:30:07;4.65;;;2.22;;
68870;SDS011;55906;52.278;6.808;2022-09-27T11:32:51;4.20;;;2.22;;
68870;SDS011;55906;52.278;6.808;2022-09-27T11:35:41;4.20;;;2.25;;
68870;SDS011;55906;52.278;6.808;2022-09-27T11:38:23;3.67;;;2.30;;
68870;SDS011;55906;52.278;6.808;2022-09-27T11:40:59;4.57;;;2.55;;
68870;SDS011;55906;52.278;6.808;2022-09-27T11:43:43;5.13;;;2.20;;
68870;SDS011;55906;52.278;6.808;2022-09-27T11:46:21;5.80;;;2.63;;
68870;SDS011;55906;52.278;6.808;2022-09-27T11:48:57;4.95;;;2.22;;
68870;SDS011;55906;52.278;6.808;2022-09-27T11:51:39;4.77;;;2.30;;
68870;SDS011;55906;52.278;6.808;2022-09-27T11:54:27;5.03;;;2.50;;
68870;SDS011;55906;52.278;6.808;2022-09-27T11:57:05;3.90;;;2.30;;
68870;SDS011;55906;52.278;6.808;2022-09-27T11:59:53;5.43;;;2.38;;
68870;SDS011;55906;52.278;6.808;2022-09-27T12:02:45;5.70;;;2.72;;
68870;SDS011;55906;52.278;6.808;2022-09-27T12:05:24;6.47;;;2.57;;
68870;SDS011;55906;52.278;6.808;2022-09-27T12:08:07;5.22;;;2.20;;
68870;SDS011;55906;52.278;6.808;2022-09-27T12:10:57;4.50;;;2.60;;
68870;SDS011;55906;52.278;6.808;2022-09-27T12:13:30;4.20;;;2.53;;
68870;SDS011;55906;52.278;6.808;2022-09-27T12:16:01;3.85;;;2.03;;
68870;SDS011;55906;52.278;6.808;2022-09-27T12:18:30;4.10;;;2.10;;
68870;SDS011;55906;52.278;6.808;2022-09-27T12:21:02;3.20;;;2.13;;
68870;SDS011;55906;52.278;6.808;2022-09-27T12:23:33;3.90;;;2.08;;
68870;SDS011;55906;52.278;6.808;2022-09-27T12:26:06;3.50;;;2.40;;
68870;SDS011;55906;52.278;6.808;2022-09-27T12:28:40;4.10;;;2.40;;
68870;SDS011;55906;52.278;6.808;2022-09-27T12:31:14;4.13;;;2.10;;
68870;SDS011;55906;52.278;6.808;2022-09-27T12:33:48;3.67;;;2.38;;
68870;SDS011;55906;52.278;6.808;2022-09-27T12:36:19;4.95;;;2.65;;
68870;SDS011;55906;52.278;6.808;2022-09-27T12:38:51;4.30;;;2.55;;
68870;SDS011;55906;52.278;6.808;2022-09-27T12:41:23;4.10;;;2.60;;
68870;SDS011;55906;52.278;6.808;2022-09-27T12:43:54;4.77;;;2.60;;
68870;SDS011;55906;52.278;6.808;2022-09-27T12:46:23;5.78;;;2.67;;
68870;SDS011;55906;52.278;6.808;2022-09-27T12:49:07;4.57;;;2.58;;
68870;SDS011;55906;52.278;6.808;2022-09-27T12:51:38;4.43;;;2.30;;
68870;SDS011;55906;52.278;6.808;2022-09-27T12:54:20;4.15;;;2.33;;
68870;SDS011;55906;52.278;6.808;2022-09-27T12:56:59;5.27;;;2.20;;
68870;SDS011;55906;52.278;6.808;2022-09-27T12:59:34;3.55;;;2.00;;
68870;SDS011;55906;52.278;6.808;2022-09-27T13:02:20;4.97;;;2.35;;
68870;SDS011;55906;52.278;6.808;2022-09-27T13:05:22;3.75;;;2.15;;
68870;SDS011;55906;52.278;6.808;2022-09-27T13:08:14;5.88;;;1.98;;
68870;SDS011;55906;52.278;6.808;2022-09-27T13:10:52;3.43;;;1.73;;
68870;SDS011;55906;52.278;6.808;2022-09-27T13:13:27;5.13;;;2.20;;
68870;SDS011;55906;52.278;6.808;2022-09-27T13:15:58;4.85;;;1.98;;
68870;SDS011;55906;52.278;6.808;2022-09-27T13:18:30;4.00;;;1.92;;
68870;SDS011;55906;52.278;6.808;2022-09-27T13:24:29;4.40;;;2.27;;
68870;SDS011;55906;52.278;6.808;2022-09-27T13:33:28;4.35;;;2.67;;
68870;SDS011;55906;52.278;6.808;2022-09-27T13:36:04;4.75;;;2.60;;
68870;SDS011;55906;52.278;6.808;2022-09-27T13:38:32;3.57;;;2.20;;
68870;SDS011;55906;52.278;6.808;2022-09-27T13:41:11;5.88;;;2.55;;
68870;SDS011;55906;52.278;6.808;2022-09-27T13:43:45;4.15;;;2.00;;
68870;SDS011;55906;52.278;6.808;2022-09-27T13:46:20;4.50;;;2.10;;
68870;SDS011;55906;52.278;6.808;2022-09-27T13:48:53;4.95;;;2.08;;
68870;SDS011;55906;52.278;6.808;2022-09-27T13:51:32;3.60;;;2.30;;
68870;SDS011;55906;52.278;6.808;2022-09-27T13:54:02;5.60;;;2.30;;
68870;SDS011;55906;52.278;6.808;2022-09-27T13:56:50;3.50;;;2.08;;
68870;SDS011;55906;52.278;6.808;2022-09-27T13:59:22;4.18;;;2.35;;
68870;SDS011;55906;52.278;6.808;2022-09-27T14:01:55;5.53;;;2.40;;
68870;SDS011;55906;52.278;6.808;2022-09-27T14:04:32;5.67;;;2.57;;
68870;SDS011;55906;52.278;6.808;2022-09-27T14:07:07;6.53;;;2.20;;
68870;SDS011;55906;52.278;6.808;2022-09-27T14:09:42;5.32;;;2.55;;
68870;SDS011;55906;52.278;6.808;2022-09-27T14:12:16;4.00;;;2.20;;
68870;SDS011;55906;52.278;6.808;2022-09-27T14:14:45;4.63;;;2.40;;
68870;SDS011;55906;52.278;6.808;2022-09-27T14:17:13;4.50;;;2.57;;
68870;SDS011;55906;52.278;6.808;2022-09-27T14:19:43;4.63;;;2.50;;
68870;SDS011;55906;52.278;6.808;2022-09-27T14:22:13;3.95;;;1.98;;
68870;SDS011;55906;52.278;6.808;2022-09-27T14:24:42;4.32;;;2.72;;
68870;SDS011;55906;52.278;6.808;2022-09-27T14:27:12;5.05;;;2.55;;
68870;SDS011;55906;52.278;6.808;2022-09-27T14:29:42;4.33;;;2.50;;
68870;SDS011;55906;52.278;6.808;2022-09-27T14:32:12;4.47;;;2.28;;
68870;SDS011;55906;52.278;6.808;2022-09-27T14:34:40;3.92;;;2.20;;
68870;SDS011;55906;52.278;6.808;2022-09-27T14:37:19;3.92;;;2.20;;
68870;SDS011;55906;52.278;6.808;2022-09-27T14:39:57;4.57;;;2.08;;
68870;SDS011;55906;52.278;6.808;2022-09-27T14:42:28;6.53;;;2.03;;
68870;SDS011;55906;52.278;6.808;2022-09-27T14:44:59;5.45;;;1.80;;
68870;SDS011;55906;52.278;6.808;2022-09-27T14:47:28;3.88;;;2.55;;
68870;SDS011;55906;52.278;6.808;2022-09-27T14:49:55;3.88;;;2.22;;
68870;SDS011;55906;52.278;6.808;2022-09-27T14:52:25;3.80;;;2.13;;
68870;SDS011;55906;52.278;6.808;2022-09-27T14:54:56;4.10;;;2.10;;
68870;SDS011;55906;52.278;6.808;2022-09-27T14:57:24;4.57;;;2.15;;
68870;SDS011;55906;52.278;6.808;2022-09-27T14:59:52;6.43;;;2.15;;
68870;SDS011;55906;52.278;6.808;2022-09-27T15:02:21;4.40;;;2.05;;
68870;SDS011;55906;52.278;6.808;2022-09-27T15:04:50;4.28;;;2.25;;
68870;SDS011;55906;52.278;6.808;2022-09-27T15:07:29;5.17;;;2.13;;
68870;SDS011;55906;52.278;6.808;2022-09-27T15:09:58;4.97;;;2.40;;
68870;SDS011;55906;52.278;6.808;2022-09-27T15:12:25;4.43;;;2.10;;
68870;SDS011;55906;52.278;6.808;2022-09-27T15:14:52;4.05;;;2.50;;
68870;SDS011;55906;52.278;6.808;2022-09-27T15:17:22;4.28;;;2.40;;
68870;SDS011;55906;52.278;6.808;2022-09-27T15:19:59;5.40;;;2.87;;
68870;SDS011;55906;52.278;6.808;2022-09-27T15:22:36;4.00;;;2.15;;
68870;SDS011;55906;52.278;6.808;2022-09-27T15:25:16;4.20;;;2.30;;
68870;SDS011;55906;52.278;6.808;2022-09-27T15:27:46;6.32;;;2.33;;